Atlantic Enterprise — WDI8007 — position and weather

sailwx.info

Track history (hours):
 
Tides and Currents Weather Stations Pressure Air Temp Water Temp Dewpoint Dewpoint Depression Visibility Wind Speed Wind Dir Waves Ship Positions

Atlantic Enterprise

Owner: Donjon Marine Co., Inc., Hillside, NJ. More information available from US FCC via Universal Licensing System and Coast Guard Vessel Documentation Center.

Last reported at 2017-Nov-17 02:15 UTC. Time now 2017-Nov-18 04:46 UTC.
Position N 41°15' W 072°11'.

Length 40 m; draft 6.1 m.

Type: Tow > 200 m length. MMSI: 367313240.

Date/timePositionNaut miles runAvg speedWind from/ knotsBaromVisibWave heightAir tempDewpointWater temp
2017-Nov-17 02:15N 41°15' W 072°11'2 9.4
2017-Nov-17 02:00N 41°14' W 072°14'5 9.1
2017-Nov-17 01:30N 41°13' W 072°20'4 8.9
2017-Nov-17 01:00N 41°11' W 072°25'5 9.2
2017-Nov-17 00:30N 41°10' W 072°31'5 9.2
2017-Nov-17 00:00N 41°10' W 072°37'5 9.4
2017-Nov-16 23:29N 41°09' W 072°44'4 2.7
2017-Nov-16 21:53N 41°10' W 072°49'4 8.9
2017-Nov-16 21:29N 41°11' W 072°45'5 9.6
2017-Nov-16 21:00N 41°12' W 072°39'5 9.4
2017-Nov-16 20:30N 41°13' W 072°33'4 8.9
2017-Nov-16 20:00N 41°14' W 072°27'4 7.2
2017-Nov-16 19:30N 41°15' W 072°22'0 0.9
2017-Nov-16 19:00N 41°15' W 072°22'0 0.9
2017-Nov-16 18:30N 41°15' W 072°23'3 5.8
2017-Nov-16 18:00N 41°13' W 072°25'510.6
2017-Nov-16 17:30N 41°14' W 072°18'5 1.4
2017-Nov-16 13:51N 41°14' W 072°12'3 8.8
2017-Nov-16 13:30N 41°13' W 072°16'4 8.6
2017-Nov-16 13:00N 41°12' W 072°21'4 8.1
2017-Nov-16 12:30N 41°11' W 072°26'4 8.4
2017-Nov-16 12:00N 41°10' W 072°32'4 8.6
2017-Nov-16 11:30N 41°10' W 072°37'4 8.7
2017-Nov-16 10:59N 41°10' W 072°43'4 2.1
2017-Nov-16 08:58N 41°10' W 072°49'4 7.8
2017-Nov-16 08:30N 41°11' W 072°44'4 7.6
2017-Nov-16 08:00N 41°12' W 072°39'4 7.3
2017-Nov-16 07:30N 41°13' W 072°35'4 7.1
2017-Nov-16 07:00N 41°13' W 072°30'3 6.0
2017-Nov-16 06:30N 41°14' W 072°26'3 5.4
2017-Nov-16 06:00N 41°15' W 072°23'0 0.7
2017-Nov-16 05:31N 41°14' W 072°22'1 2.0
2017-Nov-16 05:00N 41°15' W 072°22'0 0.0
2017-Nov-16 04:30N 41°15' W 072°22'0 0.0
2017-Nov-16 04:00N 41°15' W 072°22'0 0.0
2017-Nov-16 03:30N 41°15' W 072°22'0 0.0
2017-Nov-16 03:00N 41°15' W 072°22'0 0.0
2017-Nov-16 02:30N 41°15' W 072°22'0 0.0
2017-Nov-16 02:00N 41°15' W 072°22'0 0.0
2017-Nov-16 01:30N 41°15' W 072°22'0 0.2
2017-Nov-16 01:00N 41°15' W 072°22'0 0.2
2017-Nov-16 00:30N 41°15' W 072°22'0 0.0
2017-Nov-16 00:00N 41°15' W 072°22'0 0.0
2017-Nov-15 23:30N 41°15' W 072°22'0 0.0
2017-Nov-15 23:00N 41°15' W 072°22'0 0.0
2017-Nov-15 22:30N 41°15' W 072°22'0 0.0
2017-Nov-15 22:00N 41°15' W 072°22'0 0.0
2017-Nov-15 21:30N 41°15' W 072°22'0 0.0
2017-Nov-15 21:00N 41°15' W 072°22'0 0.0
2017-Nov-15 20:30N 41°15' W 072°22'1 1.9
2017-Nov-15 20:01N 41°15' W 072°23'2 4.7
2017-Nov-15 19:30N 41°14' W 072°26'4 7.5
2017-Nov-15 19:00N 41°14' W 072°31'5 9.7
2017-Nov-15 18:30N 41°12' W 072°37'5 9.7
2017-Nov-15 18:00N 41°11' W 072°43'5 3.4
2017-Nov-15 16:40N 41°10' W 072°49'3 8.4
2017-Nov-15 16:17N 41°10' W 072°45'2 8.4
2017-Nov-15 16:00N 41°11' W 072°42'4 8.5
2017-Nov-15 15:30N 41°12' W 072°36'4 8.5
2017-Nov-15 15:00N 41°13' W 072°31'4 7.8
2017-Nov-15 14:30N 41°14' W 072°26'3 5.7
2017-Nov-15 14:00N 41°15' W 072°22'1 0.1
2017-Nov-15 06:58N 41°15' W 072°22'0 0.0
2017-Nov-15 06:30N 41°15' W 072°22'0 0.0
2017-Nov-15 06:00N 41°15' W 072°22'0 0.0
2017-Nov-15 05:30N 41°15' W 072°22'0 0.0
2017-Nov-15 05:00N 41°15' W 072°22'0 0.0
2017-Nov-15 04:30N 41°15' W 072°22'0 0.0
2017-Nov-15 04:00N 41°15' W 072°22'0 0.0
2017-Nov-15 03:30N 41°15' W 072°22'0 0.0
2017-Nov-15 03:00N 41°15' W 072°22'0 0.0
2017-Nov-15 02:30N 41°15' W 072°22'0 0.0
2017-Nov-15 02:00N 41°15' W 072°22'0 0.0
2017-Nov-15 01:30N 41°15' W 072°22'0 0.0
2017-Nov-15 01:00N 41°15' W 072°22'0 0.0
2017-Nov-15 00:30N 41°15' W 072°22'0 0.0
2017-Nov-15 00:00N 41°15' W 072°22'0 0.0
2017-Nov-14 23:30N 41°15' W 072°22'0 0.0
2017-Nov-14 23:00N 41°15' W 072°22'0 0.0
2017-Nov-14 22:30N 41°15' W 072°22'0 0.0
2017-Nov-14 22:00N 41°15' W 072°22'0 0.0
2017-Nov-14 21:30N 41°15' W 072°22'0 0.0
2017-Nov-14 21:00N 41°15' W 072°22'0 0.0
2017-Nov-14 20:30N 41°15' W 072°22'0 0.0
2017-Nov-14 20:00N 41°15' W 072°22'0 0.0
2017-Nov-14 19:30N 41°15' W 072°22'0 0.0
2017-Nov-14 19:00N 41°15' W 072°22'0 0.0
2017-Nov-14 18:30N 41°15' W 072°22'0 0.0
2017-Nov-14 18:00N 41°15' W 072°22'0 0.0
2017-Nov-14 17:30N 41°15' W 072°22'0 0.0
2017-Nov-14 17:00N 41°15' W 072°22'0 0.0
2017-Nov-14 16:30N 41°15' W 072°22'0 0.0
2017-Nov-14 16:00N 41°15' W 072°22'0 0.0
2017-Nov-14 15:30N 41°15' W 072°22'0 0.0
2017-Nov-14 15:00N 41°15' W 072°22'0 0.0
2017-Nov-14 14:30N 41°15' W 072°22'0 0.0
2017-Nov-14 14:00N 41°15' W 072°22'0 0.0
2017-Nov-14 13:30N 41°15' W 072°22'0 0.0
2017-Nov-14 13:00N 41°15' W 072°22'0 0.0
2017-Nov-14 12:30N 41°15' W 072°22'0 0.0
2017-Nov-14 12:00N 41°15' W 072°22'0 0.0
2017-Nov-14 11:30N 41°15' W 072°22'0 0.0
2017-Nov-14 11:00N 41°15' W 072°22'0 0.0
2017-Nov-14 10:30N 41°15' W 072°22'0 0.0
2017-Nov-14 10:00N 41°15' W 072°22'0 0.0
2017-Nov-14 09:30N 41°15' W 072°22'0 0.0
2017-Nov-14 09:00N 41°15' W 072°22'0 0.0
2017-Nov-14 08:30N 41°15' W 072°22'0 0.0
2017-Nov-14 08:00N 41°15' W 072°22'0 0.0
2017-Nov-14 07:30N 41°15' W 072°22'0 0.0
2017-Nov-14 07:00N 41°15' W 072°22'0 0.0
2017-Nov-14 06:30N 41°15' W 072°22'0 0.0
2017-Nov-14 06:00N 41°15' W 072°22'0 0.0
2017-Nov-14 05:30N 41°15' W 072°22'0 0.0
2017-Nov-14 05:00N 41°15' W 072°22'0 0.0
2017-Nov-14 04:30N 41°15' W 072°22'0 0.0
2017-Nov-14 04:00N 41°15' W 072°22'0 0.0
2017-Nov-14 03:30N 41°15' W 072°22'0 0.0
2017-Nov-14 03:00N 41°15' W 072°22'0 0.0
2017-Nov-14 02:30N 41°15' W 072°22'0 0.0
2017-Nov-14 02:00N 41°15' W 072°22'0 0.0
2017-Nov-14 01:30N 41°15' W 072°22'0 0.0
2017-Nov-14 01:00N 41°15' W 072°22'0 0.0
2017-Nov-14 00:30N 41°15' W 072°22'0 0.4
2017-Nov-14 00:00N 41°15' W 072°22'0 0.7
2017-Nov-13 23:30N 41°15' W 072°22'0 0.9
2017-Nov-13 23:00N 41°14' W 072°22'0 0.8
2017-Nov-13 22:30N 41°15' W 072°22'0 0.5
2017-Nov-13 22:00N 41°15' W 072°22'14 0.7
2017-Nov-13 02:00N 41°09' W 072°40'52 6.8
2017-Nov-12 18:20N 40°52' W 073°45'3 7.6
2017-Nov-12 17:58N 40°50' W 073°47'2 4.1
2017-Nov-12 17:30N 40°48' W 073°48'4 8.6
2017-Nov-12 17:00N 40°48' W 073°54'4 8.4
2017-Nov-12 16:30N 40°45' W 073°58'3 6.6
2017-Nov-12 16:00N 40°42' W 073°60'4 7.6
2017-Nov-12 15:30N 40°39' W 074°03'3 5.9
2017-Nov-12 15:00N 40°39' W 074°07'2 4.3
2017-Nov-12 14:30N 40°41' W 074°08'1 1.7
2017-Nov-12 14:00N 40°41' W 074°08'0 0.1
2017-Nov-12 13:30N 40°41' W 074°08'0 0.0
2017-Nov-12 12:58N 40°41' W 074°08'0 0.0
2017-Nov-12 12:29N 40°41' W 074°08'0 0.0
2017-Nov-12 11:59N 40°41' W 074°08'0 0.0
2017-Nov-12 11:29N 40°41' W 074°08'0 0.0
2017-Nov-12 10:59N 40°41' W 074°08'0 0.0
2017-Nov-12 10:28N 40°41' W 074°08'0 0.0
2017-Nov-12 09:59N 40°41' W 074°08'0 0.0
2017-Nov-12 09:28N 40°41' W 074°08'0 0.0
2017-Nov-12 08:58N 40°41' W 074°08'0 0.0
2017-Nov-12 08:28N 40°41' W 074°08'0 0.0
2017-Nov-12 07:58N 40°41' W 074°08'0 0.0
2017-Nov-12 07:28N 40°41' W 074°08'0 0.0
2017-Nov-12 06:58N 40°41' W 074°08'0 0.0
2017-Nov-12 06:25N 40°41' W 074°08'0 0.0
2017-Nov-12 05:59N 40°41' W 074°08'0 0.0
2017-Nov-12 05:28N 40°41' W 074°08'0 0.0
2017-Nov-12 04:58N 40°41' W 074°08'0 0.0
2017-Nov-12 04:28N 40°41' W 074°08'0 0.0
2017-Nov-12 03:58N 40°41' W 074°08'0 0.0
2017-Nov-12 03:28N 40°41' W 074°08'0 0.0
2017-Nov-12 02:58N 40°41' W 074°08'0 0.0
2017-Nov-12 02:28N 40°41' W 074°08'0 0.0
2017-Nov-12 01:59N 40°41' W 074°08'0 0.0
2017-Nov-12 01:28N 40°41' W 074°08'0 0.0
2017-Nov-12 00:58N 40°41' W 074°08'0 0.0
2017-Nov-12 00:28N 40°41' W 074°08'0 0.0
2017-Nov-11 23:58N 40°41' W 074°08'0 0.0
2017-Nov-11 23:28N 40°41' W 074°08'0 0.0
2017-Nov-11 22:58N 40°41' W 074°08'0 0.0
2017-Nov-11 22:28N 40°41' W 074°08'0 0.0
2017-Nov-11 21:58N 40°41' W 074°08'0 0.0
2017-Nov-11 21:30N 40°41' W 074°08'0 0.4
2017-Nov-11 21:01N 40°41' W 074°08'3 5.6
2017-Nov-11 20:30N 40°39' W 074°10'3 6.3
2017-Nov-11 20:00N 40°36' W 074°12'2 2.1
2017-Nov-11 19:06N 40°34' W 074°13'1 9.0
2017-Nov-11 18:58N 40°36' W 074°12'3 7.5
2017-Nov-11 18:30N 40°39' W 074°10'3 6.4
2017-Nov-11 18:01N 40°41' W 074°08'0 0.0
2017-Nov-11 17:28N 40°41' W 074°08'0 0.0
2017-Nov-11 16:58N 40°41' W 074°08'0 0.0
2017-Nov-11 16:22N 40°41' W 074°08'0 0.0
2017-Nov-11 15:58N 40°41' W 074°08'0 0.0
2017-Nov-11 15:28N 40°41' W 074°08'0 0.0
2017-Nov-11 14:58N 40°41' W 074°08'0 0.0
2017-Nov-11 14:28N 40°41' W 074°08'0 0.0
2017-Nov-11 13:58N 40°41' W 074°08'0 0.0
2017-Nov-11 13:28N 40°41' W 074°08'0 0.0
2017-Nov-11 12:49N 40°41' W 074°08'0 0.0
2017-Nov-11 12:25N 40°41' W 074°08'0 0.0
2017-Nov-11 11:58N 40°41' W 074°08'0 0.0
2017-Nov-11 11:28N 40°41' W 074°08'0 0.0
2017-Nov-11 10:58N 40°41' W 074°08'0 0.0
2017-Nov-11 10:28N 40°41' W 074°08'0 0.0
2017-Nov-11 09:58N 40°41' W 074°08'0 0.0
2017-Nov-11 09:28N 40°41' W 074°08'0 0.0
2017-Nov-11 08:58N 40°41' W 074°08'0 0.0
2017-Nov-11 08:28N 40°41' W 074°08'0 0.0
2017-Nov-11 07:55N 40°41' W 074°08'0 0.0
2017-Nov-11 07:25N 40°41' W 074°08'0 0.0
2017-Nov-11 06:58N 40°41' W 074°08'0 0.0
2017-Nov-11 06:28N 40°41' W 074°08'0 0.0
2017-Nov-11 05:58N 40°41' W 074°08'0 0.0
2017-Nov-11 05:28N 40°41' W 074°08'0 0.0
2017-Nov-11 04:58N 40°41' W 074°08'0 0.0
2017-Nov-11 04:28N 40°41' W 074°08'0 0.0
2017-Nov-11 03:58N 40°41' W 074°08'0 0.0
2017-Nov-11 03:28N 40°41' W 074°08'0 0.0
2017-Nov-11 02:58N 40°41' W 074°08'0 0.0
2017-Nov-11 02:28N 40°41' W 074°08'0 0.0
2017-Nov-11 01:58N 40°41' W 074°08'0 0.0
2017-Nov-11 01:28N 40°41' W 074°08'0 0.0
2017-Nov-11 00:58N 40°41' W 074°08'0 0.0
2017-Nov-11 00:28N 40°41' W 074°08'0 0.0
2017-Nov-10 23:58N 40°41' W 074°08'0 0.0
2017-Nov-10 23:25N 40°41' W 074°08'0 0.0
2017-Nov-10 22:58N 40°41' W 074°08'0 0.0
2017-Nov-10 22:28N 40°41' W 074°08'0 0.0
2017-Nov-10 21:58N 40°41' W 074°08'0 0.0
2017-Nov-10 21:28N 40°41' W 074°08'0 0.0
2017-Nov-10 20:58N 40°41' W 074°08'0 0.0
2017-Nov-10 20:19N 40°41' W 074°08'0 0.0
2017-Nov-10 19:58N 40°41' W 074°08'0 0.3
2017-Nov-10 19:30N 40°41' W 074°08'0 0.0
2017-Nov-10 18:29N 40°41' W 074°08'0 0.0
2017-Nov-10 17:59N 40°41' W 074°08'0 0.0
2017-Nov-10 17:29N 40°41' W 074°08'0 0.0
2017-Nov-10 16:56N 40°41' W 074°08'0 0.0
2017-Nov-10 16:29N 40°41' W 074°08'0 0.0
2017-Nov-10 15:59N 40°41' W 074°08'0 0.2
2017-Nov-10 15:30N 40°41' W 074°08'0 0.1
2017-Nov-10 14:59N 40°41' W 074°08'0 0.1
2017-Nov-10 14:29N 40°41' W 074°08'0 0.0
2017-Nov-10 13:59N 40°41' W 074°08'0 0.0
2017-Nov-10 13:20N 40°41' W 074°08'0 0.0
2017-Nov-10 12:59N 40°41' W 074°08'0 0.0
2017-Nov-10 12:29N 40°41' W 074°08'0 0.0
2017-Nov-10 11:59N 40°41' W 074°08'0 0.0
2017-Nov-10 11:29N 40°41' W 074°08'0 0.0
2017-Nov-10 10:59N 40°41' W 074°08'0 0.0
2017-Nov-10 10:23N 40°41' W 074°08'0 0.0
2017-Nov-10 09:59N 40°41' W 074°08'0 0.0
2017-Nov-10 09:29N 40°41' W 074°08'0 0.0
2017-Nov-10 08:59N 40°41' W 074°08'0 0.0
2017-Nov-10 08:23N 40°41' W 074°08'0 0.0
2017-Nov-10 07:56N 40°41' W 074°08'0 0.0
2017-Nov-10 07:29N 40°41' W 074°08'0 0.0
2017-Nov-10 06:59N 40°41' W 074°08'0 0.0
2017-Nov-10 06:29N 40°41' W 074°08'0 0.0
2017-Nov-10 05:59N 40°41' W 074°08'0 0.0
2017-Nov-10 05:17N 40°41' W 074°08'0 0.0
2017-Nov-10 04:59N 40°41' W 074°08'0 0.0
2017-Nov-10 04:26N 40°41' W 074°08'0 0.0
2017-Nov-10 03:59N 40°41' W 074°08'0 0.0
2017-Nov-10 03:29N 40°41' W 074°08'0 0.0
2017-Nov-10 02:59N 40°41' W 074°08'0 0.0
2017-Nov-10 02:29N 40°41' W 074°08'0 0.0
2017-Nov-10 01:59N 40°41' W 074°08'0 0.0
2017-Nov-10 01:29N 40°41' W 074°08'0 0.0
2017-Nov-10 00:56N 40°41' W 074°08'0 0.0
2017-Nov-10 00:29N 40°41' W 074°08'0 0.0
2017-Nov-09 23:56N 40°41' W 074°08'0 0.0
2017-Nov-09 23:29N 40°41' W 074°08'0 0.0
2017-Nov-09 22:59N 40°41' W 074°08'0 0.0
2017-Nov-09 22:20N 40°41' W 074°08'0 0.0
2017-Nov-09 21:56N 40°41' W 074°08'0 0.0
2017-Nov-09 21:29N 40°41' W 074°08'0 0.0
2017-Nov-09 20:56N 40°41' W 074°08'0 0.0
2017-Nov-09 20:29N 40°41' W 074°08'0 0.0
2017-Nov-09 19:59N 40°41' W 074°08'0 0.0
2017-Nov-09 19:29N 40°41' W 074°08'0 0.0
2017-Nov-09 18:56N 40°41' W 074°08'0 0.0
2017-Nov-09 18:29N 40°41' W 074°08'0 0.1
2017-Nov-09 17:56N 40°41' W 074°08'0 0.0
2017-Nov-09 17:29N 40°41' W 074°08'0 0.0
2017-Nov-09 16:59N 40°41' W 074°08'0 0.0
2017-Nov-09 16:29N 40°41' W 074°08'0 0.0
2017-Nov-09 15:59N 40°41' W 074°08'0 0.0
2017-Nov-09 15:20N 40°41' W 074°08'0 0.0
2017-Nov-09 14:56N 40°41' W 074°08'0 0.0
2017-Nov-09 14:26N 40°41' W 074°08'0 0.0
2017-Nov-09 13:59N 40°41' W 074°08'0 0.0
2017-Nov-09 13:29N 40°41' W 074°08'0 0.0
2017-Nov-09 12:59N 40°41' W 074°08'0 0.0
2017-Nov-09 12:23N 40°41' W 074°08'0 0.3
2017-Nov-09 12:00N 40°41' W 074°08'0 0.0
2017-Nov-09 11:30N 40°41' W 074°08'0 0.0
2017-Nov-09 11:00N 40°41' W 074°08'0 0.0
2017-Nov-09 10:30N 40°41' W 074°08'0 0.0
2017-Nov-09 10:00N 40°41' W 074°08'0 0.0
2017-Nov-09 09:30N 40°41' W 074°08'0 0.0
2017-Nov-09 09:00N 40°41' W 074°08'0 0.0
2017-Nov-09 08:30N 40°41' W 074°08'0 0.0
2017-Nov-09 08:00N 40°41' W 074°08'0 0.0
2017-Nov-09 07:30N 40°41' W 074°08'0 0.0
2017-Nov-09 07:00N 40°41' W 074°08'0 0.0
2017-Nov-09 06:30N 40°41' W 074°08'0 0.0
2017-Nov-09 06:00N 40°41' W 074°08'0 0.0
2017-Nov-09 05:30N 40°41' W 074°08'0 0.0
2017-Nov-09 05:00N 40°41' W 074°08'0 0.0
2017-Nov-09 04:30N 40°41' W 074°08'0 0.0
2017-Nov-09 04:00N 40°41' W 074°08'0 0.0
2017-Nov-09 03:30N 40°41' W 074°08'0 0.0
2017-Nov-09 03:00N 40°41' W 074°08'0 0.0
2017-Nov-09 02:30N 40°41' W 074°08'0 0.0
2017-Nov-09 01:57N 40°41' W 074°08'0 0.0
2017-Nov-09 01:30N 40°41' W 074°08'0 0.0
2017-Nov-09 01:00N 40°41' W 074°08'0 0.0
2017-Nov-09 00:30N 40°41' W 074°08'0 0.0
2017-Nov-09 00:00N 40°41' W 074°08'0 0.0
2017-Nov-08 23:30N 40°41' W 074°08'0 0.0
2017-Nov-08 23:00N 40°41' W 074°08'0 0.0
2017-Nov-08 22:30N 40°41' W 074°08'0 0.0
2017-Nov-08 22:00N 40°41' W 074°08'0 0.0
2017-Nov-08 21:30N 40°41' W 074°08'0 0.0
2017-Nov-08 21:00N 40°41' W 074°08'0 0.0
2017-Nov-08 20:30N 40°41' W 074°08'0 0.0
2017-Nov-08 20:00N 40°42' W 074°08'0 0.0
2017-Nov-08 19:30N 40°41' W 074°08'0 0.0
2017-Nov-08 19:00N 40°41' W 074°08'0 0.0
2017-Nov-08 18:30N 40°41' W 074°08'0 0.0
2017-Nov-08 17:54N 40°41' W 074°08'0 0.0
2017-Nov-08 17:30N 40°41' W 074°08'0 0.0
2017-Nov-08 16:57N 40°41' W 074°08'0 0.4
2017-Nov-08 16:30N 40°41' W 074°08'0 0.1
2017-Nov-08 16:00N 40°41' W 074°08'0 0.2
2017-Nov-08 15:30N 40°41' W 074°08'0 0.0
2017-Nov-08 15:00N 40°41' W 074°08'0 0.0
2017-Nov-08 14:30N 40°41' W 074°08'0 0.0
2017-Nov-08 14:00N 40°41' W 074°08'0 0.0
2017-Nov-08 13:27N 40°41' W 074°08'0 0.0
2017-Nov-08 12:57N 40°41' W 074°08'0 0.0
2017-Nov-08 12:30N 40°41' W 074°08'0 0.0
2017-Nov-08 12:00N 40°41' W 074°08'0 0.0
2017-Nov-08 11:30N 40°41' W 074°08'0 0.0
2017-Nov-08 11:00N 40°41' W 074°08'0 0.0
2017-Nov-08 10:27N 40°41' W 074°08'0 0.0
2017-Nov-08 09:57N 40°41' W 074°08'0 0.0
2017-Nov-08 09:30N 40°41' W 074°08'0 0.0
2017-Nov-08 09:00N 40°41' W 074°08'0 0.0
2017-Nov-08 08:30N 40°41' W 074°08'0 0.0
2017-Nov-08 08:00N 40°41' W 074°08'0 0.0
2017-Nov-08 07:30N 40°41' W 074°08'0 0.0
2017-Nov-08 07:00N 40°41' W 074°08'0 0.0
2017-Nov-08 06:30N 40°41' W 074°08'0 0.0
2017-Nov-08 06:00N 40°41' W 074°08'0 0.0
2017-Nov-08 05:30N 40°41' W 074°08'0 0.0
2017-Nov-08 05:00N 40°41' W 074°08'0 0.0
2017-Nov-08 04:30N 40°41' W 074°08'0 0.0
2017-Nov-08 04:00N 40°41' W 074°08'0 0.0
2017-Nov-08 03:30N 40°41' W 074°08'0 0.0
2017-Nov-08 03:00N 40°41' W 074°08'0 0.0
2017-Nov-08 02:27N 40°41' W 074°08'0 0.0
2017-Nov-08 01:57N 40°41' W 074°08'0 0.0
2017-Nov-08 01:27N 40°41' W 074°08'0 0.0
2017-Nov-08 01:00N 40°41' W 074°08'0 0.0
2017-Nov-08 00:30N 40°41' W 074°08'0 0.0
2017-Nov-08 00:00N 40°41' W 074°08'0 0.0
2017-Nov-07 23:30N 40°41' W 074°08'0 0.0
2017-Nov-07 23:00N 40°41' W 074°08'0 0.0
2017-Nov-07 22:30N 40°41' W 074°08'0 0.0
2017-Nov-07 22:00N 40°41' W 074°08'0 0.1
2017-Nov-07 21:31N 40°42' W 074°08'3 5.9
2017-Nov-07 21:00N 40°39' W 074°08'4 7.8
2017-Nov-07 20:31N 40°39' W 074°03'511.0
2017-Nov-07 20:01N 40°43' W 073°58'510.7
2017-Nov-07 19:30N 40°48' W 073°55'5 9.5
2017-Nov-07 19:00N 40°48' W 073°48'0 0.0
2017-Nov-07 18:30N 40°48' W 073°48'0 0.0
2017-Nov-07 17:59N 40°48' W 073°48'0 0.1
2017-Nov-07 17:30N 40°48' W 073°48'1 2.5
2017-Nov-07 17:00N 40°48' W 073°50'3 6.3
2017-Nov-07 16:30N 40°48' W 073°54'4 7.6
2017-Nov-07 16:00N 40°45' W 073°58'4 7.1
2017-Nov-07 15:30N 40°42' W 073°60'4 7.3
2017-Nov-07 15:01N 40°40' W 074°03'3 5.5
2017-Nov-07 14:30N 40°39' W 074°07'2 3.5
2017-Nov-07 14:01N 40°40' W 074°08'2 3.4
2017-Nov-07 13:31N 40°41' W 074°08'0 0.0
2017-Nov-07 12:55N 40°41' W 074°08'0 0.0
2017-Nov-07 12:28N 40°41' W 074°08'0 0.0
2017-Nov-07 11:58N 40°41' W 074°08'0 0.0
2017-Nov-07 11:22N 40°41' W 074°08'0 0.0
2017-Nov-07 10:58N 40°41' W 074°08'0 0.0
2017-Nov-07 10:28N 40°41' W 074°08'0 0.0
2017-Nov-07 09:58N 40°41' W 074°08'0 0.0
2017-Nov-07 09:28N 40°41' W 074°08'0 0.0
2017-Nov-07 08:58N 40°41' W 074°08'0 0.0
2017-Nov-07 08:28N 40°41' W 074°08'0 0.0
2017-Nov-07 07:58N 40°41' W 074°08'0 0.0
2017-Nov-07 07:28N 40°41' W 074°08'0 0.0
2017-Nov-07 06:58N 40°41' W 074°08'0 0.0
2017-Nov-07 06:28N 40°41' W 074°08'0 0.0
2017-Nov-07 05:58N 40°41' W 074°08'0 0.0
2017-Nov-07 05:22N 40°41' W 074°08'0 0.0
2017-Nov-07 04:58N 40°41' W 074°08'0 0.0
2017-Nov-07 04:28N 40°41' W 074°08'0 0.0
2017-Nov-07 03:58N 40°41' W 074°08'0 0.0
2017-Nov-07 03:28N 40°41' W 074°08'0 0.0
2017-Nov-07 02:58N 40°41' W 074°08'0 0.0
2017-Nov-07 02:28N 40°41' W 074°08'  
Track history (hours):
 
Tides and Currents Weather Stations Pressure Air Temp Water Temp Dewpoint Dewpoint Depression Visibility Wind Speed Wind Dir Waves Ship Positions

Atlantic Enterprise

Owner: Donjon Marine Co., Inc., Hillside, NJ. More information available from US FCC via Universal Licensing System and Coast Guard Vessel Documentation Center.

Last reported at 2017-Nov-17 02:15 UTC. Time now 2017-Nov-18 04:46 UTC.
Position N 41°15' W 072°11'.

Length 40 m; draft 6.1 m.

Type: Tow > 200 m length. MMSI: 367313240.

Date/timePositionNaut miles runAvg speedWind from/ knotsBaromVisibWave heightAir tempDewpointWater temp
2017-Nov-17 02:15N 41°15' W 072°11'2 9.4
2017-Nov-17 02:00N 41°14' W 072°14'5 9.1
2017-Nov-17 01:30N 41°13' W 072°20'4 8.9
2017-Nov-17 01:00N 41°11' W 072°25'5 9.2
2017-Nov-17 00:30N 41°10' W 072°31'5 9.2
2017-Nov-17 00:00N 41°10' W 072°37'5 9.4
2017-Nov-16 23:29N 41°09' W 072°44'4 2.7
2017-Nov-16 21:53N 41°10' W 072°49'4 8.9
2017-Nov-16 21:29N 41°11' W 072°45'5 9.6
2017-Nov-16 21:00N 41°12' W 072°39'5 9.4
2017-Nov-16 20:30N 41°13' W 072°33'4 8.9
2017-Nov-16 20:00N 41°14' W 072°27'4 7.2
2017-Nov-16 19:30N 41°15' W 072°22'0 0.9
2017-Nov-16 19:00N 41°15' W 072°22'0 0.9
2017-Nov-16 18:30N 41°15' W 072°23'3 5.8
2017-Nov-16 18:00N 41°13' W 072°25'510.6
2017-Nov-16 17:30N 41°14' W 072°18'5 1.4
2017-Nov-16 13:51N 41°14' W 072°12'3 8.8
2017-Nov-16 13:30N 41°13' W 072°16'4 8.6
2017-Nov-16 13:00N 41°12' W 072°21'4 8.1
2017-Nov-16 12:30N 41°11' W 072°26'4 8.4
2017-Nov-16 12:00N 41°10' W 072°32'4 8.6
2017-Nov-16 11:30N 41°10' W 072°37'4 8.7
2017-Nov-16 10:59N 41°10' W 072°43'4 2.1
2017-Nov-16 08:58N 41°10' W 072°49'4 7.8
2017-Nov-16 08:30N 41°11' W 072°44'4 7.6
2017-Nov-16 08:00N 41°12' W 072°39'4 7.3
2017-Nov-16 07:30N 41°13' W 072°35'4 7.1
2017-Nov-16 07:00N 41°13' W 072°30'3 6.0
2017-Nov-16 06:30N 41°14' W 072°26'3 5.4
2017-Nov-16 06:00N 41°15' W 072°23'0 0.7
2017-Nov-16 05:31N 41°14' W 072°22'1 2.0
2017-Nov-16 05:00N 41°15' W 072°22'0 0.0
2017-Nov-16 04:30N 41°15' W 072°22'0 0.0
2017-Nov-16 04:00N 41°15' W 072°22'0 0.0
2017-Nov-16 03:30N 41°15' W 072°22'0 0.0
2017-Nov-16 03:00N 41°15' W 072°22'0 0.0
2017-Nov-16 02:30N 41°15' W 072°22'0 0.0
2017-Nov-16 02:00N 41°15' W 072°22'0 0.0
2017-Nov-16 01:30N 41°15' W 072°22'0 0.2
2017-Nov-16 01:00N 41°15' W 072°22'0 0.2
2017-Nov-16 00:30N 41°15' W 072°22'0 0.0
2017-Nov-16 00:00N 41°15' W 072°22'0 0.0
2017-Nov-15 23:30N 41°15' W 072°22'0 0.0
2017-Nov-15 23:00N 41°15' W 072°22'0 0.0
2017-Nov-15 22:30N 41°15' W 072°22'0 0.0
2017-Nov-15 22:00N 41°15' W 072°22'0 0.0
2017-Nov-15 21:30N 41°15' W 072°22'0 0.0
2017-Nov-15 21:00N 41°15' W 072°22'0 0.0
2017-Nov-15 20:30N 41°15' W 072°22'1 1.9
2017-Nov-15 20:01N 41°15' W 072°23'2 4.7
2017-Nov-15 19:30N 41°14' W 072°26'4 7.5
2017-Nov-15 19:00N 41°14' W 072°31'5 9.7
2017-Nov-15 18:30N 41°12' W 072°37'5 9.7
2017-Nov-15 18:00N 41°11' W 072°43'5 3.4
2017-Nov-15 16:40N 41°10' W 072°49'3 8.4
2017-Nov-15 16:17N 41°10' W 072°45'2 8.4
2017-Nov-15 16:00N 41°11' W 072°42'4 8.5
2017-Nov-15 15:30N 41°12' W 072°36'4 8.5
2017-Nov-15 15:00N 41°13' W 072°31'4 7.8
2017-Nov-15 14:30N 41°14' W 072°26'3 5.7
2017-Nov-15 14:00N 41°15' W 072°22'1 0.1
2017-Nov-15 06:58N 41°15' W 072°22'0 0.0
2017-Nov-15 06:30N 41°15' W 072°22'0 0.0
2017-Nov-15 06:00N 41°15' W 072°22'0 0.0
2017-Nov-15 05:30N 41°15' W 072°22'0 0.0
2017-Nov-15 05:00N 41°15' W 072°22'0 0.0
2017-Nov-15 04:30N 41°15' W 072°22'0 0.0
2017-Nov-15 04:00N 41°15' W 072°22'0 0.0
2017-Nov-15 03:30N 41°15' W 072°22'0 0.0
2017-Nov-15 03:00N 41°15' W 072°22'0 0.0
2017-Nov-15 02:30N 41°15' W 072°22'0 0.0
2017-Nov-15 02:00N 41°15' W 072°22'0 0.0
2017-Nov-15 01:30N 41°15' W 072°22'0 0.0
2017-Nov-15 01:00N 41°15' W 072°22'0 0.0
2017-Nov-15 00:30N 41°15' W 072°22'0 0.0
2017-Nov-15 00:00N 41°15' W 072°22'0 0.0
2017-Nov-14 23:30N 41°15' W 072°22'0 0.0
2017-Nov-14 23:00N 41°15' W 072°22'0 0.0
2017-Nov-14 22:30N 41°15' W 072°22'0 0.0
2017-Nov-14 22:00N 41°15' W 072°22'0 0.0
2017-Nov-14 21:30N 41°15' W 072°22'0 0.0
2017-Nov-14 21:00N 41°15' W 072°22'0 0.0
2017-Nov-14 20:30N 41°15' W 072°22'0 0.0
2017-Nov-14 20:00N 41°15' W 072°22'0 0.0
2017-Nov-14 19:30N 41°15' W 072°22'0 0.0
2017-Nov-14 19:00N 41°15' W 072°22'0 0.0
2017-Nov-14 18:30N 41°15' W 072°22'0 0.0
2017-Nov-14 18:00N 41°15' W 072°22'0 0.0
2017-Nov-14 17:30N 41°15' W 072°22'0 0.0
2017-Nov-14 17:00N 41°15' W 072°22'0 0.0
2017-Nov-14 16:30N 41°15' W 072°22'0 0.0
2017-Nov-14 16:00N 41°15' W 072°22'0 0.0
2017-Nov-14 15:30N 41°15' W 072°22'0 0.0
2017-Nov-14 15:00N 41°15' W 072°22'0 0.0
2017-Nov-14 14:30N 41°15' W 072°22'0 0.0
2017-Nov-14 14:00N 41°15' W 072°22'0 0.0
2017-Nov-14 13:30N 41°15' W 072°22'0 0.0
2017-Nov-14 13:00N 41°15' W 072°22'0 0.0
2017-Nov-14 12:30N 41°15' W 072°22'0 0.0
2017-Nov-14 12:00N 41°15' W 072°22'0 0.0
2017-Nov-14 11:30N 41°15' W 072°22'0 0.0
2017-Nov-14 11:00N 41°15' W 072°22'0 0.0
2017-Nov-14 10:30N 41°15' W 072°22'0 0.0
2017-Nov-14 10:00N 41°15' W 072°22'0 0.0
2017-Nov-14 09:30N 41°15' W 072°22'0 0.0
2017-Nov-14 09:00N 41°15' W 072°22'0 0.0
2017-Nov-14 08:30N 41°15' W 072°22'0 0.0
2017-Nov-14 08:00N 41°15' W 072°22'0 0.0
2017-Nov-14 07:30N 41°15' W 072°22'0 0.0
2017-Nov-14 07:00N 41°15' W 072°22'0 0.0
2017-Nov-14 06:30N 41°15' W 072°22'0 0.0
2017-Nov-14 06:00N 41°15' W 072°22'0 0.0
2017-Nov-14 05:30N 41°15' W 072°22'0 0.0
2017-Nov-14 05:00N 41°15' W 072°22'0 0.0
2017-Nov-14 04:30N 41°15' W 072°22'0 0.0
2017-Nov-14 04:00N 41°15' W 072°22'0 0.0
2017-Nov-14 03:30N 41°15' W 072°22'0 0.0
2017-Nov-14 03:00N 41°15' W 072°22'0 0.0
2017-Nov-14 02:30N 41°15' W 072°22'0 0.0
2017-Nov-14 02:00N 41°15' W 072°22'0 0.0
2017-Nov-14 01:30N 41°15' W 072°22'0 0.0
2017-Nov-14 01:00N 41°15' W 072°22'0 0.0
2017-Nov-14 00:30N 41°15' W 072°22'0 0.4
2017-Nov-14 00:00N 41°15' W 072°22'0 0.7
2017-Nov-13 23:30N 41°15' W 072°22'0 0.9
2017-Nov-13 23:00N 41°14' W 072°22'0 0.8
2017-Nov-13 22:30N 41°15' W 072°22'0 0.5
2017-Nov-13 22:00N 41°15' W 072°22'14 0.7
2017-Nov-13 02:00N 41°09' W 072°40'52 6.8
2017-Nov-12 18:20N 40°52' W 073°45'3 7.6
2017-Nov-12 17:58N 40°50' W 073°47'2 4.1
2017-Nov-12 17:30N 40°48' W 073°48'4 8.6
2017-Nov-12 17:00N 40°48' W 073°54'4 8.4
2017-Nov-12 16:30N 40°45' W 073°58'3 6.6
2017-Nov-12 16:00N 40°42' W 073°60'4 7.6
2017-Nov-12 15:30N 40°39' W 074°03'3 5.9
2017-Nov-12 15:00N 40°39' W 074°07'2 4.3
2017-Nov-12 14:30N 40°41' W 074°08'1 1.7
2017-Nov-12 14:00N 40°41' W 074°08'0 0.1
2017-Nov-12 13:30N 40°41' W 074°08'0 0.0
2017-Nov-12 12:58N 40°41' W 074°08'0 0.0
2017-Nov-12 12:29N 40°41' W 074°08'0 0.0
2017-Nov-12 11:59N 40°41' W 074°08'0 0.0
2017-Nov-12 11:29N 40°41' W 074°08'0 0.0
2017-Nov-12 10:59N 40°41' W 074°08'0 0.0
2017-Nov-12 10:28N 40°41' W 074°08'0 0.0
2017-Nov-12 09:59N 40°41' W 074°08'0 0.0
2017-Nov-12 09:28N 40°41' W 074°08'0 0.0
2017-Nov-12 08:58N 40°41' W 074°08'0 0.0
2017-Nov-12 08:28N 40°41' W 074°08'0 0.0
2017-Nov-12 07:58N 40°41' W 074°08'0 0.0
2017-Nov-12 07:28N 40°41' W 074°08'0 0.0
2017-Nov-12 06:58N 40°41' W 074°08'0 0.0
2017-Nov-12 06:25N 40°41' W 074°08'0 0.0
2017-Nov-12 05:59N 40°41' W 074°08'0 0.0
2017-Nov-12 05:28N 40°41' W 074°08'0 0.0
2017-Nov-12 04:58N 40°41' W 074°08'0 0.0
2017-Nov-12 04:28N 40°41' W 074°08'0 0.0
2017-Nov-12 03:58N 40°41' W 074°08'0 0.0
2017-Nov-12 03:28N 40°41' W 074°08'0 0.0
2017-Nov-12 02:58N 40°41' W 074°08'0 0.0
2017-Nov-12 02:28N 40°41' W 074°08'0 0.0
2017-Nov-12 01:59N 40°41' W 074°08'0 0.0
2017-Nov-12 01:28N 40°41' W 074°08'0 0.0
2017-Nov-12 00:58N 40°41' W 074°08'0 0.0
2017-Nov-12 00:28N 40°41' W 074°08'0 0.0
2017-Nov-11 23:58N 40°41' W 074°08'0 0.0
2017-Nov-11 23:28N 40°41' W 074°08'0 0.0
2017-Nov-11 22:58N 40°41' W 074°08'0 0.0
2017-Nov-11 22:28N 40°41' W 074°08'0 0.0
2017-Nov-11 21:58N 40°41' W 074°08'0 0.0
2017-Nov-11 21:30N 40°41' W 074°08'0 0.4
2017-Nov-11 21:01N 40°41' W 074°08'3 5.6
2017-Nov-11 20:30N 40°39' W 074°10'3 6.3
2017-Nov-11 20:00N 40°36' W 074°12'2 2.1
2017-Nov-11 19:06N 40°34' W 074°13'1 9.0
2017-Nov-11 18:58N 40°36' W 074°12'3 7.5
2017-Nov-11 18:30N 40°39' W 074°10'3 6.4
2017-Nov-11 18:01N 40°41' W 074°08'0 0.0
2017-Nov-11 17:28N 40°41' W 074°08'0 0.0
2017-Nov-11 16:58N 40°41' W 074°08'0 0.0
2017-Nov-11 16:22N 40°41' W 074°08'0 0.0
2017-Nov-11 15:58N 40°41' W 074°08'0 0.0
2017-Nov-11 15:28N 40°41' W 074°08'0 0.0
2017-Nov-11 14:58N 40°41' W 074°08'0 0.0
2017-Nov-11 14:28N 40°41' W 074°08'0 0.0
2017-Nov-11 13:58N 40°41' W 074°08'0 0.0
2017-Nov-11 13:28N 40°41' W 074°08'0 0.0
2017-Nov-11 12:49N 40°41' W 074°08'0 0.0
2017-Nov-11 12:25N 40°41' W 074°08'0 0.0
2017-Nov-11 11:58N 40°41' W 074°08'0 0.0
2017-Nov-11 11:28N 40°41' W 074°08'0 0.0
2017-Nov-11 10:58N 40°41' W 074°08'0 0.0
2017-Nov-11 10:28N 40°41' W 074°08'0 0.0
2017-Nov-11 09:58N 40°41' W 074°08'0 0.0
2017-Nov-11 09:28N 40°41' W 074°08'0 0.0
2017-Nov-11 08:58N 40°41' W 074°08'0 0.0
2017-Nov-11 08:28N 40°41' W 074°08'0 0.0
2017-Nov-11 07:55N 40°41' W 074°08'0 0.0
2017-Nov-11 07:25N 40°41' W 074°08'0 0.0
2017-Nov-11 06:58N 40°41' W 074°08'0 0.0
2017-Nov-11 06:28N 40°41' W 074°08'0 0.0
2017-Nov-11 05:58N 40°41' W 074°08'0 0.0
2017-Nov-11 05:28N 40°41' W 074°08'0 0.0
2017-Nov-11 04:58N 40°41' W 074°08'0 0.0
2017-Nov-11 04:28N 40°41' W 074°08'0 0.0
2017-Nov-11 03:58N 40°41' W 074°08'0 0.0
2017-Nov-11 03:28N 40°41' W 074°08'0 0.0
2017-Nov-11 02:58N 40°41' W 074°08'0 0.0
2017-Nov-11 02:28N 40°41' W 074°08'0 0.0
2017-Nov-11 01:58N 40°41' W 074°08'0 0.0
2017-Nov-11 01:28N 40°41' W 074°08'0 0.0
2017-Nov-11 00:58N 40°41' W 074°08'0 0.0
2017-Nov-11 00:28N 40°41' W 074°08'0 0.0
2017-Nov-10 23:58N 40°41' W 074°08'0 0.0
2017-Nov-10 23:25N 40°41' W 074°08'0 0.0
2017-Nov-10 22:58N 40°41' W 074°08'0 0.0
2017-Nov-10 22:28N 40°41' W 074°08'0 0.0
2017-Nov-10 21:58N 40°41' W 074°08'0 0.0
2017-Nov-10 21:28N 40°41' W 074°08'0 0.0
2017-Nov-10 20:58N 40°41' W 074°08'0 0.0
2017-Nov-10 20:19N 40°41' W 074°08'0 0.0
2017-Nov-10 19:58N 40°41' W 074°08'0 0.3
2017-Nov-10 19:30N 40°41' W 074°08'0 0.0
2017-Nov-10 18:29N 40°41' W 074°08'0 0.0
2017-Nov-10 17:59N 40°41' W 074°08'0 0.0
2017-Nov-10 17:29N 40°41' W 074°08'0 0.0
2017-Nov-10 16:56N 40°41' W 074°08'0 0.0
2017-Nov-10 16:29N 40°41' W 074°08'0 0.0
2017-Nov-10 15:59N 40°41' W 074°08'0 0.2
2017-Nov-10 15:30N 40°41' W 074°08'0 0.1
2017-Nov-10 14:59N 40°41' W 074°08'0 0.1
2017-Nov-10 14:29N 40°41' W 074°08'0 0.0
2017-Nov-10 13:59N 40°41' W 074°08'0 0.0
2017-Nov-10 13:20N 40°41' W 074°08'0 0.0
2017-Nov-10 12:59N 40°41' W 074°08'0 0.0
2017-Nov-10 12:29N 40°41' W 074°08'0 0.0
2017-Nov-10 11:59N 40°41' W 074°08'0 0.0
2017-Nov-10 11:29N 40°41' W 074°08'0 0.0
2017-Nov-10 10:59N 40°41' W 074°08'0 0.0
2017-Nov-10 10:23N 40°41' W 074°08'0 0.0
2017-Nov-10 09:59N 40°41' W 074°08'0 0.0
2017-Nov-10 09:29N 40°41' W 074°08'0 0.0
2017-Nov-10 08:59N 40°41' W 074°08'0 0.0
2017-Nov-10 08:23N 40°41' W 074°08'0 0.0
2017-Nov-10 07:56N 40°41' W 074°08'0 0.0
2017-Nov-10 07:29N 40°41' W 074°08'0 0.0
2017-Nov-10 06:59N 40°41' W 074°08'0 0.0
2017-Nov-10 06:29N 40°41' W 074°08'0 0.0
2017-Nov-10 05:59N 40°41' W 074°08'0 0.0
2017-Nov-10 05:17N 40°41' W 074°08'0 0.0
2017-Nov-10 04:59N 40°41' W 074°08'0 0.0
2017-Nov-10 04:26N 40°41' W 074°08'0 0.0
2017-Nov-10 03:59N 40°41' W 074°08'0 0.0
2017-Nov-10 03:29N 40°41' W 074°08'0 0.0
2017-Nov-10 02:59N 40°41' W 074°08'0 0.0
2017-Nov-10 02:29N 40°41' W 074°08'0 0.0
2017-Nov-10 01:59N 40°41' W 074°08'0 0.0
2017-Nov-10 01:29N 40°41' W 074°08'0 0.0
2017-Nov-10 00:56N 40°41' W 074°08'0 0.0
2017-Nov-10 00:29N 40°41' W 074°08'0 0.0
2017-Nov-09 23:56N 40°41' W 074°08'0 0.0
2017-Nov-09 23:29N 40°41' W 074°08'0 0.0
2017-Nov-09 22:59N 40°41' W 074°08'0 0.0
2017-Nov-09 22:20N 40°41' W 074°08'0 0.0
2017-Nov-09 21:56N 40°41' W 074°08'0 0.0
2017-Nov-09 21:29N 40°41' W 074°08'0 0.0
2017-Nov-09 20:56N 40°41' W 074°08'0 0.0
2017-Nov-09 20:29N 40°41' W 074°08'0 0.0
2017-Nov-09 19:59N 40°41' W 074°08'0 0.0
2017-Nov-09 19:29N 40°41' W 074°08'0 0.0
2017-Nov-09 18:56N 40°41' W 074°08'0 0.0
2017-Nov-09 18:29N 40°41' W 074°08'0 0.1
2017-Nov-09 17:56N 40°41' W 074°08'0 0.0
2017-Nov-09 17:29N 40°41' W 074°08'0 0.0
2017-Nov-09 16:59N 40°41' W 074°08'0 0.0
2017-Nov-09 16:29N 40°41' W 074°08'0 0.0
2017-Nov-09 15:59N 40°41' W 074°08'0 0.0
2017-Nov-09 15:20N 40°41' W 074°08'0 0.0
2017-Nov-09 14:56N 40°41' W 074°08'0 0.0
2017-Nov-09 14:26N 40°41' W 074°08'0 0.0
2017-Nov-09 13:59N 40°41' W 074°08'0 0.0
2017-Nov-09 13:29N 40°41' W 074°08'0 0.0
2017-Nov-09 12:59N 40°41' W 074°08'0 0.0
2017-Nov-09 12:23N 40°41' W 074°08'0 0.3
2017-Nov-09 12:00N 40°41' W 074°08'0 0.0
2017-Nov-09 11:30N 40°41' W 074°08'0 0.0
2017-Nov-09 11:00N 40°41' W 074°08'0 0.0
2017-Nov-09 10:30N 40°41' W 074°08'0 0.0
2017-Nov-09 10:00N 40°41' W 074°08'0 0.0
2017-Nov-09 09:30N 40°41' W 074°08'0 0.0
2017-Nov-09 09:00N 40°41' W 074°08'0 0.0
2017-Nov-09 08:30N 40°41' W 074°08'0 0.0
2017-Nov-09 08:00N 40°41' W 074°08'0 0.0
2017-Nov-09 07:30N 40°41' W 074°08'0 0.0
2017-Nov-09 07:00N 40°41' W 074°08'0 0.0
2017-Nov-09 06:30N 40°41' W 074°08'0 0.0
2017-Nov-09 06:00N 40°41' W 074°08'0 0.0
2017-Nov-09 05:30N 40°41' W 074°08'0 0.0
2017-Nov-09 05:00N 40°41' W 074°08'0 0.0
2017-Nov-09 04:30N 40°41' W 074°08'0 0.0
2017-Nov-09 04:00N 40°41' W 074°08'0 0.0
2017-Nov-09 03:30N 40°41' W 074°08'0 0.0
2017-Nov-09 03:00N 40°41' W 074°08'0 0.0
2017-Nov-09 02:30N 40°41' W 074°08'0 0.0
2017-Nov-09 01:57N 40°41' W 074°08'0 0.0
2017-Nov-09 01:30N 40°41' W 074°08'0 0.0
2017-Nov-09 01:00N 40°41' W 074°08'0 0.0
2017-Nov-09 00:30N 40°41' W 074°08'0 0.0
2017-Nov-09 00:00N 40°41' W 074°08'0 0.0
2017-Nov-08 23:30N 40°41' W 074°08'0 0.0
2017-Nov-08 23:00N 40°41' W 074°08'0 0.0
2017-Nov-08 22:30N 40°41' W 074°08'0 0.0
2017-Nov-08 22:00N 40°41' W 074°08'0 0.0
2017-Nov-08 21:30N 40°41' W 074°08'0 0.0
2017-Nov-08 21:00N 40°41' W 074°08'0 0.0
2017-Nov-08 20:30N 40°41' W 074°08'0 0.0
2017-Nov-08 20:00N 40°42' W 074°08'0 0.0
2017-Nov-08 19:30N 40°41' W 074°08'0 0.0
2017-Nov-08 19:00N 40°41' W 074°08'0 0.0
2017-Nov-08 18:30N 40°41' W 074°08'0 0.0
2017-Nov-08 17:54N 40°41' W 074°08'0 0.0
2017-Nov-08 17:30N 40°41' W 074°08'0 0.0
2017-Nov-08 16:57N 40°41' W 074°08'0 0.4
2017-Nov-08 16:30N 40°41' W 074°08'0 0.1
2017-Nov-08 16:00N 40°41' W 074°08'0 0.2
2017-Nov-08 15:30N 40°41' W 074°08'0 0.0
2017-Nov-08 15:00N 40°41' W 074°08'0 0.0
2017-Nov-08 14:30N 40°41' W 074°08'0 0.0
2017-Nov-08 14:00N 40°41' W 074°08'0 0.0
2017-Nov-08 13:27N 40°41' W 074°08'0 0.0
2017-Nov-08 12:57N 40°41' W 074°08'0 0.0
2017-Nov-08 12:30N 40°41' W 074°08'0 0.0
2017-Nov-08 12:00N 40°41' W 074°08'0 0.0
2017-Nov-08 11:30N 40°41' W 074°08'0 0.0
2017-Nov-08 11:00N 40°41' W 074°08'0 0.0
2017-Nov-08 10:27N 40°41' W 074°08'0 0.0
2017-Nov-08 09:57N 40°41' W 074°08'0 0.0
2017-Nov-08 09:30N 40°41' W 074°08'0 0.0
2017-Nov-08 09:00N 40°41' W 074°08'0 0.0
2017-Nov-08 08:30N 40°41' W 074°08'0 0.0
2017-Nov-08 08:00N 40°41' W 074°08'0 0.0
2017-Nov-08 07:30N 40°41' W 074°08'0 0.0
2017-Nov-08 07:00N 40°41' W 074°08'0 0.0
2017-Nov-08 06:30N 40°41' W 074°08'0 0.0
2017-Nov-08 06:00N 40°41' W 074°08'0 0.0
2017-Nov-08 05:30N 40°41' W 074°08'0 0.0
2017-Nov-08 05:00N 40°41' W 074°08'0 0.0
2017-Nov-08 04:30N 40°41' W 074°08'0 0.0
2017-Nov-08 04:00N 40°41' W 074°08'0 0.0
2017-Nov-08 03:30N 40°41' W 074°08'0 0.0
2017-Nov-08 03:00N 40°41' W 074°08'0 0.0
2017-Nov-08 02:27N 40°41' W 074°08'0 0.0
2017-Nov-08 01:57N 40°41' W 074°08'0 0.0
2017-Nov-08 01:27N 40°41' W 074°08'0 0.0
2017-Nov-08 01:00N 40°41' W 074°08'0 0.0
2017-Nov-08 00:30N 40°41' W 074°08'0 0.0
2017-Nov-08 00:00N 40°41' W 074°08'0 0.0
2017-Nov-07 23:30N 40°41' W 074°08'0 0.0
2017-Nov-07 23:00N 40°41' W 074°08'0 0.0
2017-Nov-07 22:30N 40°41' W 074°08'0 0.0
2017-Nov-07 22:00N 40°41' W 074°08'0 0.1
2017-Nov-07 21:31N 40°42' W 074°08'3 5.9
2017-Nov-07 21:00N 40°39' W 074°08'4 7.8
2017-Nov-07 20:31N 40°39' W 074°03'511.0
2017-Nov-07 20:01N 40°43' W 073°58'510.7
2017-Nov-07 19:30N 40°48' W 073°55'5 9.5
2017-Nov-07 19:00N 40°48' W 073°48'0 0.0
2017-Nov-07 18:30N 40°48' W 073°48'0 0.0
2017-Nov-07 17:59N 40°48' W 073°48'0 0.1
2017-Nov-07 17:30N 40°48' W 073°48'1 2.5
2017-Nov-07 17:00N 40°48' W 073°50'3 6.3
2017-Nov-07 16:30N 40°48' W 073°54'4 7.6
2017-Nov-07 16:00N 40°45' W 073°58'4 7.1
2017-Nov-07 15:30N 40°42' W 073°60'4 7.3
2017-Nov-07 15:01N 40°40' W 074°03'3 5.5
2017-Nov-07 14:30N 40°39' W 074°07'2 3.5
2017-Nov-07 14:01N 40°40' W 074°08'2 3.4
2017-Nov-07 13:31N 40°41' W 074°08'0 0.0
2017-Nov-07 12:55N 40°41' W 074°08'0 0.0
2017-Nov-07 12:28N 40°41' W 074°08'0 0.0
2017-Nov-07 11:58N 40°41' W 074°08'0 0.0
2017-Nov-07 11:22N 40°41' W 074°08'0 0.0
2017-Nov-07 10:58N 40°41' W 074°08'0 0.0
2017-Nov-07 10:28N 40°41' W 074°08'0 0.0
2017-Nov-07 09:58N 40°41' W 074°08'0 0.0
2017-Nov-07 09:28N 40°41' W 074°08'0 0.0
2017-Nov-07 08:58N 40°41' W 074°08'0 0.0
2017-Nov-07 08:28N 40°41' W 074°08'0 0.0
2017-Nov-07 07:58N 40°41' W 074°08'0 0.0
2017-Nov-07 07:28N 40°41' W 074°08'0 0.0
2017-Nov-07 06:58N 40°41' W 074°08'0 0.0
2017-Nov-07 06:28N 40°41' W 074°08'0 0.0
2017-Nov-07 05:58N 40°41' W 074°08'0 0.0
2017-Nov-07 05:22N 40°41' W 074°08'0 0.0
2017-Nov-07 04:58N 40°41' W 074°08'0 0.0
2017-Nov-07 04:28N 40°41' W 074°08'0 0.0
2017-Nov-07 03:58N 40°41' W 074°08'0 0.0
2017-Nov-07 03:28N 40°41' W 074°08'0 0.0
2017-Nov-07 02:58N 40°41' W 074°08'0 0.0
2017-Nov-07 02:28N 40°41' W 074°08'  

Dump ship's entire track history